sensor_id;sensor_type;location;lat;lon;timestamp;pressure;altitude;pressure_sealevel;temperature;humidity
49947;BME280;35839;48.662;13.300;2023-05-01T05:05:53;97186.53;;;11.34;77.97
49947;BME280;35839;48.662;13.300;2023-05-01T05:08:18;97166.75;;;11.64;75.34
49947;BME280;35839;48.662;13.300;2023-05-01T05:10:43;97182.06;;;11.93;73.99
49947;BME280;35839;48.662;13.300;2023-05-01T05:13:08;97176.81;;;11.93;75.07
49947;BME280;35839;48.662;13.300;2023-05-01T05:15:34;97175.00;;;12.02;74.61
49947;BME280;35839;48.662;13.300;2023-05-01T05:17:59;97179.63;;;12.08;74.51
49947;BME280;35839;48.662;13.300;2023-05-01T05:20:25;97170.91;;;11.99;75.20
49947;BME280;35839;48.662;13.300;2023-05-01T05:22:50;97169.44;;;12.13;73.73
49947;BME280;35839;48.662;13.300;2023-05-01T05:25:16;97173.53;;;12.40;72.56
49947;BME280;35839;48.662;13.300;2023-05-01T05:27:41;97171.03;;;12.55;71.65
49947;BME280;35839;48.662;13.300;2023-05-01T05:30:07;97167.53;;;12.63;70.30
49947;BME280;35839;48.662;13.300;2023-05-01T05:32:33;97167.44;;;12.40;73.88
49947;BME280;35839;48.662;13.300;2023-05-01T05:34:58;97159.50;;;12.64;72.76
49947;BME280;35839;48.662;13.300;2023-05-01T05:37:24;97166.72;;;12.71;72.12
49947;BME280;35839;48.662;13.300;2023-05-01T05:39:50;97154.41;;;12.71;71.27
49947;BME280;35839;48.662;13.300;2023-05-01T05:42:15;97151.28;;;12.68;73.97
49947;BME280;35839;48.662;13.300;2023-05-01T05:44:41;97150.47;;;12.67;73.48
49947;BME280;35839;48.662;13.300;2023-05-01T05:47:06;97144.84;;;13.18;73.35
49947;BME280;35839;48.662;13.300;2023-05-01T05:49:31;97154.34;;;12.88;71.33
49947;BME280;35839;48.662;13.300;2023-05-01T05:51:57;97149.47;;;13.07;74.00
49947;BME280;35839;48.662;13.300;2023-05-01T05:54:22;97153.28;;;13.05;70.69
49947;BME280;35839;48.662;13.300;2023-05-01T05:56:47;97151.16;;;13.40;69.28
49947;BME280;35839;48.662;13.300;2023-05-01T05:59:12;97156.56;;;13.46;67.69
49947;BME280;35839;48.662;13.300;2023-05-01T06:01:38;97161.06;;;13.61;67.43
49947;BME280;35839;48.662;13.300;2023-05-01T06:04:04;97152.34;;;13.37;67.26
49947;BME280;35839;48.662;13.300;2023-05-01T06:06:30;97151.91;;;13.57;64.68
49947;BME280;35839;48.662;13.300;2023-05-01T06:08:56;97154.44;;;13.73;63.97
49947;BME280;35839;48.662;13.300;2023-05-01T06:11:21;97150.31;;;13.94;61.87
49947;BME280;35839;48.662;13.300;2023-05-01T06:13:47;97145.66;;;13.81;60.29
49947;BME280;35839;48.662;13.300;2023-05-01T06:16:12;97146.94;;;13.62;62.85
49947;BME280;35839;48.662;13.300;2023-05-01T06:18:39;97140.22;;;13.82;62.59
49947;BME280;35839;48.662;13.300;2023-05-01T06:21:04;97141.72;;;13.77;62.43
49947;BME280;35839;48.662;13.300;2023-05-01T06:23:30;97139.31;;;13.13;64.53
49947;BME280;35839;48.662;13.300;2023-05-01T06:25:55;97138.97;;;13.70;63.70
49947;BME280;35839;48.662;13.300;2023-05-01T06:28:21;97136.81;;;13.74;65.04
49947;BME280;35839;48.662;13.300;2023-05-01T06:30:46;97126.16;;;14.43;63.61
49947;BME280;35839;48.662;13.300;2023-05-01T06:33:12;97132.66;;;14.55;63.31
49947;BME280;35839;48.662;13.300;2023-05-01T06:35:38;97129.41;;;14.30;64.57
49947;BME280;35839;48.662;13.300;2023-05-01T06:38:04;97129.06;;;14.33;60.29
49947;BME280;35839;48.662;13.300;2023-05-01T06:40:30;97127.38;;;14.55;56.48
49947;BME280;35839;48.662;13.300;2023-05-01T06:42:56;97125.16;;;14.44;57.23
49947;BME280;35839;48.662;13.300;2023-05-01T06:45:25;97126.97;;;14.28;57.79
49947;BME280;35839;48.662;13.300;2023-05-01T06:47:50;97124.47;;;14.80;61.94
49947;BME280;35839;48.662;13.300;2023-05-01T06:50:15;97125.72;;;14.99;58.77
49947;BME280;35839;48.662;13.300;2023-05-01T06:52:41;97125.72;;;14.99;55.27
49947;BME280;35839;48.662;13.300;2023-05-01T06:55:06;97126.66;;;14.91;54.88
49947;BME280;35839;48.662;13.300;2023-05-01T06:57:32;97130.44;;;15.03;56.21
49947;BME280;35839;48.662;13.300;2023-05-01T06:59:57;97128.28;;;14.92;54.78
49947;BME280;35839;48.662;13.300;2023-05-01T07:02:22;97132.56;;;14.93;54.37
49947;BME280;35839;48.662;13.300;2023-05-01T07:04:47;97131.81;;;14.84;53.96
49947;BME280;35839;48.662;13.300;2023-05-01T07:07:13;97124.16;;;14.45;56.62
49947;BME280;35839;48.662;13.300;2023-05-01T07:09:39;97136.69;;;14.43;55.42
49947;BME280;35839;48.662;13.300;2023-05-01T07:12:05;97132.81;;;14.39;55.82
49947;BME280;35839;48.662;13.300;2023-05-01T07:14:30;97124.31;;;14.66;55.61
49947;BME280;35839;48.662;13.300;2023-05-01T07:16:56;97129.00;;;15.01;55.47
49947;BME280;35839;48.662;13.300;2023-05-01T07:19:22;97123.00;;;15.07;55.25
49947;BME280;35839;48.662;13.300;2023-05-01T07:21:47;97121.25;;;15.14;54.76
49947;BME280;35839;48.662;13.300;2023-05-01T07:24:13;97112.41;;;15.22;53.62
49947;BME280;35839;48.662;13.300;2023-05-01T07:26:38;97112.31;;;15.51;56.09
49947;BME280;35839;48.662;13.300;2023-05-01T07:29:03;97108.50;;;15.75;58.11
49947;BME280;35839;48.662;13.300;2023-05-01T07:31:29;97106.72;;;15.83;55.00
49947;BME280;35839;48.662;13.300;2023-05-01T07:33:55;97105.81;;;15.90;53.59
49947;BME280;35839;48.662;13.300;2023-05-01T07:36:20;97089.88;;;16.05;53.22
49947;BME280;35839;48.662;13.300;2023-05-01T07:38:47;97099.38;;;15.99;52.25
49947;BME280;35839;48.662;13.300;2023-05-01T07:41:12;97111.09;;;16.47;53.58
49947;BME280;35839;48.662;13.300;2023-05-01T07:43:38;97109.31;;;16.26;52.14
49947;BME280;35839;48.662;13.300;2023-05-01T07:46:03;97100.88;;;15.87;52.03
49947;BME280;35839;48.662;13.300;2023-05-01T07:48:30;97106.81;;;16.17;52.23
49947;BME280;35839;48.662;13.300;2023-05-01T07:50:56;97095.53;;;16.30;48.99
49947;BME280;35839;48.662;13.300;2023-05-01T07:53:22;97104.00;;;16.54;51.11
49947;BME280;35839;48.662;13.300;2023-05-01T07:55:47;97095.94;;;16.62;52.57
49947;BME280;35839;48.662;13.300;2023-05-01T07:58:12;97094.53;;;17.08;50.79
49947;BME280;35839;48.662;13.300;2023-05-01T08:00:38;97095.13;;;17.03;49.66
49947;BME280;35839;48.662;13.300;2023-05-01T08:03:03;97095.66;;;17.40;49.46
49947;BME280;35839;48.662;13.300;2023-05-01T08:05:28;97096.59;;;16.77;48.43
49947;BME280;35839;48.662;13.300;2023-05-01T08:07:55;97106.50;;;17.03;49.32
49947;BME280;35839;48.662;13.300;2023-05-01T08:10:21;97095.22;;;17.30;47.27
49947;BME280;35839;48.662;13.300;2023-05-01T08:12:46;97107.16;;;16.71;47.45
49947;BME280;35839;48.662;13.300;2023-05-01T08:15:11;97103.69;;;16.35;48.65
49947;BME280;35839;48.662;13.300;2023-05-01T08:17:36;97100.94;;;16.85;48.34
49947;BME280;35839;48.662;13.300;2023-05-01T08:20:02;97105.31;;;16.99;47.82
49947;BME280;35839;48.662;13.300;2023-05-01T08:22:28;97097.59;;;17.04;48.99
49947;BME280;35839;48.662;13.300;2023-05-01T08:24:53;97090.03;;;17.83;50.15
49947;BME280;35839;48.662;13.300;2023-05-01T08:27:19;97090.03;;;17.83;48.20
49947;BME280;35839;48.662;13.300;2023-05-01T08:29:44;97090.88;;;17.83;47.55
49947;BME280;35839;48.662;13.300;2023-05-01T08:32:09;97090.03;;;18.03;48.82
49947;BME280;35839;48.662;13.300;2023-05-01T08:34:34;97086.78;;;18.01;48.59
49947;BME280;35839;48.662;13.300;2023-05-01T08:37:00;97095.41;;;17.28;45.19
49947;BME280;35839;48.662;13.300;2023-05-01T08:39:26;97092.00;;;17.47;46.78
49947;BME280;35839;48.662;13.300;2023-05-01T08:41:51;97086.34;;;18.04;46.27
49947;BME280;35839;48.662;13.300;2023-05-01T08:44:18;97090.38;;;17.53;45.43
49947;BME280;35839;48.662;13.300;2023-05-01T08:46:52;97087.53;;;17.41;46.13
49947;BME280;35839;48.662;13.300;2023-05-01T08:49:20;97088.16;;;17.77;44.88
49947;BME280;35839;48.662;13.300;2023-05-01T08:51:46;97084.31;;;18.32;43.50
49947;BME280;35839;48.662;13.300;2023-05-01T08:54:15;97076.13;;;18.41;47.55
49947;BME280;35839;48.662;13.300;2023-05-01T08:56:43;97076.13;;;18.34;46.32
49947;BME280;35839;48.662;13.300;2023-05-01T08:59:12;97079.03;;;18.06;45.56
49947;BME280;35839;48.662;13.300;2023-05-01T09:01:40;97079.06;;;17.93;47.51
49947;BME280;35839;48.662;13.300;2023-05-01T09:04:06;97082.69;;;17.85;47.04
49947;BME280;35839;48.662;13.300;2023-05-01T09:06:31;97075.75;;;18.10;47.38
49947;BME280;35839;48.662;13.300;2023-05-01T09:09:00;97079.41;;;18.36;48.24
49947;BME280;35839;48.662;13.300;2023-05-01T09:11:25;97075.34;;;18.20;44.52
49947;BME280;35839;48.662;13.300;2023-05-01T09:13:51;97072.06;;;18.38;45.38
49947;BME280;35839;48.662;13.300;2023-05-01T09:16:17;97071.13;;;18.84;44.04
49947;BME280;35839;48.662;13.300;2023-05-01T09:18:43;97068.44;;;19.36;44.39
49947;BME280;35839;48.662;13.300;2023-05-01T09:21:09;97065.81;;;19.61;42.91
49947;BME280;35839;48.662;13.300;2023-05-01T09:23:34;97061.00;;;20.27;44.69
49947;BME280;35839;48.662;13.300;2023-05-01T09:26:04;97056.88;;;20.12;41.01
49947;BME280;35839;48.662;13.300;2023-05-01T09:28:43;97052.03;;;20.83;39.88
49947;BME280;35839;48.662;13.300;2023-05-01T09:31:30;97059.91;;;19.91;41.44
49947;BME280;35839;48.662;13.300;2023-05-01T09:34:00;97047.88;;;20.32;41.48
49947;BME280;35839;48.662;13.300;2023-05-01T09:36:28;97051.00;;;20.47;41.60
49947;BME280;35839;48.662;13.300;2023-05-01T09:38:55;97041.75;;;20.50;42.82
49947;BME280;35839;48.662;13.300;2023-05-01T09:41:21;97044.97;;;20.58;41.07
49947;BME280;35839;48.662;13.300;2023-05-01T09:43:51;97047.44;;;20.53;42.89
49947;BME280;35839;48.662;13.300;2023-05-01T09:46:16;97047.41;;;20.60;40.51
49947;BME280;35839;48.662;13.300;2023-05-01T09:48:57;97050.28;;;20.15;39.64
49947;BME280;35839;48.662;13.300;2023-05-01T09:51:24;97050.00;;;20.41;41.58
49947;BME280;35839;48.662;13.300;2023-05-01T09:53:55;97047.19;;;20.80;41.42
49947;BME280;35839;48.662;13.300;2023-05-01T09:56:20;97046.41;;;21.10;39.82
49947;BME280;35839;48.662;13.300;2023-05-01T09:58:47;97047.75;;;21.31;39.67
49947;BME280;35839;48.662;13.300;2023-05-01T10:01:12;97048.78;;;21.72;38.50
49947;BME280;35839;48.662;13.300;2023-05-01T10:03:37;97045.50;;;21.46;38.42
49947;BME280;35839;48.662;13.300;2023-05-01T10:06:03;97045.22;;;21.66;38.15
49947;BME280;35839;48.662;13.300;2023-05-01T10:08:49;97051.44;;;21.60;37.26
49947;BME280;35839;48.662;13.300;2023-05-01T10:11:15;97056.66;;;21.55;40.64
49947;BME280;35839;48.662;13.300;2023-05-01T10:13:40;97044.94;;;21.56;40.33
49947;BME280;35839;48.662;13.300;2023-05-01T10:16:06;97051.50;;;21.41;40.27
49947;BME280;35839;48.662;13.300;2023-05-01T10:18:34;97039.59;;;21.25;41.01
49947;BME280;35839;48.662;13.300;2023-05-01T10:20:59;97047.59;;;20.77;40.79
49947;BME280;35839;48.662;13.300;2023-05-01T10:23:24;97052.78;;;20.90;40.12
49947;BME280;35839;48.662;13.300;2023-05-01T10:25:51;97045.22;;;21.05;42.57
49947;BME280;35839;48.662;13.300;2023-05-01T10:28:21;97047.97;;;20.80;42.50
49947;BME280;35839;48.662;13.300;2023-05-01T10:30:48;97046.69;;;20.46;42.96
49947;BME280;35839;48.662;13.300;2023-05-01T10:33:13;97039.69;;;20.52;43.79
49947;BME280;35839;48.662;13.300;2023-05-01T10:35:41;97034.88;;;20.79;42.14
49947;BME280;35839;48.662;13.300;2023-05-01T10:38:12;97033.22;;;21.15;40.87
49947;BME280;35839;48.662;13.300;2023-05-01T10:45:47;97035.25;;;21.73;38.93
49947;BME280;35839;48.662;13.300;2023-05-01T10:51:17;97029.31;;;21.59;40.42
49947;BME280;35839;48.662;13.300;2023-05-01T10:53:45;97025.19;;;22.10;39.78
49947;BME280;35839;48.662;13.300;2023-05-01T11:03:57;97023.56;;;22.57;38.79
49947;BME280;35839;48.662;13.300;2023-05-01T11:06:23;97024.28;;;22.81;38.86
49947;BME280;35839;48.662;13.300;2023-05-01T11:08:49;97015.56;;;22.57;37.88
49947;BME280;35839;48.662;13.300;2023-05-01T11:13:59;97016.19;;;22.76;37.53
49947;BME280;35839;48.662;13.300;2023-05-01T11:19:07;97011.06;;;23.43;35.30
49947;BME280;35839;48.662;13.300;2023-05-01T11:21:35;97008.41;;;23.14;36.27
49947;BME280;35839;48.662;13.300;2023-05-01T11:24:02;97006.72;;;23.71;35.10
49947;BME280;35839;48.662;13.300;2023-05-01T11:26:29;97008.75;;;24.36;34.87
49947;BME280;35839;48.662;13.300;2023-05-01T11:28:58;97001.78;;;23.96;32.89
49947;BME280;35839;48.662;13.300;2023-05-01T11:31:25;96995.66;;;24.18;37.19
49947;BME280;35839;48.662;13.300;2023-05-01T11:33:51;96994.97;;;24.06;35.88
49947;BME280;35839;48.662;13.300;2023-05-01T11:36:19;96989.13;;;24.70;33.52
49947;BME280;35839;48.662;13.300;2023-05-01T11:38:55;96992.28;;;24.06;35.60
49947;BME280;35839;48.662;13.300;2023-05-01T11:41:22;96986.66;;;24.46;33.93
49947;BME280;35839;48.662;13.300;2023-05-01T11:48:56;96984.56;;;24.92;35.91
49947;BME280;35839;48.662;13.300;2023-05-01T11:51:23;96987.09;;;25.04;33.61
49947;BME280;35839;48.662;13.300;2023-05-01T11:54:10;96983.84;;;24.53;35.24
49947;BME280;35839;48.662;13.300;2023-05-01T11:56:37;96989.25;;;24.58;30.69
49947;BME280;35839;48.662;13.300;2023-05-01T11:59:12;96991.94;;;25.07;34.97
49947;BME280;35839;48.662;13.300;2023-05-01T12:01:43;96991.69;;;25.68;33.50
49947;BME280;35839;48.662;13.300;2023-05-01T12:04:09;96987.28;;;24.75;29.83
49947;BME280;35839;48.662;13.300;2023-05-01T12:06:39;96993.44;;;24.98;28.97
49947;BME280;35839;48.662;13.300;2023-05-01T12:09:09;96989.53;;;25.33;33.21
49947;BME280;35839;48.662;13.300;2023-05-01T12:11:35;96988.81;;;25.75;33.40
49947;BME280;35839;48.662;13.300;2023-05-01T12:14:01;96986.28;;;23.98;32.38
49947;BME280;35839;48.662;13.300;2023-05-01T12:16:27;96979.69;;;25.16;32.39
49947;BME280;35839;48.662;13.300;2023-05-01T12:18:54;96980.09;;;25.57;32.36
49947;BME280;35839;48.662;13.300;2023-05-01T12:21:19;96978.47;;;25.56;30.30
49947;BME280;35839;48.662;13.300;2023-05-01T12:23:45;96974.25;;;25.06;30.65
49947;BME280;35839;48.662;13.300;2023-05-01T12:26:18;96972.50;;;25.49;32.14
49947;BME280;35839;48.662;13.300;2023-05-01T12:28:57;96969.25;;;24.88;31.14
49947;BME280;35839;48.662;13.300;2023-05-01T12:31:23;96972.44;;;24.02;30.29
49947;BME280;35839;48.662;13.300;2023-05-01T12:33:59;96969.31;;;25.52;32.61
49947;BME280;35839;48.662;13.300;2023-05-01T12:36:27;96967.84;;;25.67;30.19
49947;BME280;35839;48.662;13.300;2023-05-01T12:41:20;96965.63;;;25.58;32.40
49947;BME280;35839;48.662;13.300;2023-05-01T12:43:45;96957.41;;;25.70;33.47
49947;BME280;35839;48.662;13.300;2023-05-01T12:46:13;96961.38;;;25.62;32.82
49947;BME280;35839;48.662;13.300;2023-05-01T12:48:38;96955.56;;;25.76;32.53
49947;BME280;35839;48.662;13.300;2023-05-01T12:51:04;96961.13;;;25.32;34.00
49947;BME280;35839;48.662;13.300;2023-05-01T12:53:30;96962.31;;;25.46;29.64
49947;BME280;35839;48.662;13.300;2023-05-01T12:55:57;96960.41;;;24.65;31.54
49947;BME280;35839;48.662;13.300;2023-05-01T12:58:23;96955.34;;;23.69;32.21
49947;BME280;35839;48.662;13.300;2023-05-01T13:00:53;96953.75;;;24.46;35.31
49947;BME280;35839;48.662;13.300;2023-05-01T13:03:26;96960.38;;;23.31;34.01
49947;BME280;35839;48.662;13.300;2023-05-01T13:05:58;96950.88;;;24.74;33.66
49947;BME280;35839;48.662;13.300;2023-05-01T13:08:35;96948.16;;;25.51;34.21
49947;BME280;35839;48.662;13.300;2023-05-01T13:11:09;96953.28;;;25.57;32.36
49947;BME280;35839;48.662;13.300;2023-05-01T13:13:37;96954.22;;;24.59;31.41
49947;BME280;35839;48.662;13.300;2023-05-01T13:16:07;96946.44;;;23.97;32.92
49947;BME280;35839;48.662;13.300;2023-05-01T13:18:43;96950.06;;;23.91;33.33
49947;BME280;35839;48.662;13.300;2023-05-01T13:21:10;96951.44;;;23.09;33.62
49947;BME280;35839;48.662;13.300;2023-05-01T13:23:39;96947.63;;;24.06;33.69
49947;BME280;35839;48.662;13.300;2023-05-01T13:26:05;96944.97;;;25.27;31.63
49947;BME280;35839;48.662;13.300;2023-05-01T13:28:33;96940.50;;;25.70;32.10
49947;BME280;35839;48.662;13.300;2023-05-01T13:30:58;96947.41;;;25.98;32.82
49947;BME280;35839;48.662;13.300;2023-05-01T13:33:23;96950.72;;;25.78;30.30
49947;BME280;35839;48.662;13.300;2023-05-01T13:35:48;96941.28;;;26.07;31.42
49947;BME280;35839;48.662;13.300;2023-05-01T13:38:14;96952.00;;;25.65;33.21
49947;BME280;35839;48.662;13.300;2023-05-01T13:40:40;96951.13;;;25.59;33.21
49947;BME280;35839;48.662;13.300;2023-05-01T13:43:13;96950.59;;;24.98;30.62
49947;BME280;35839;48.662;13.300;2023-05-01T13:45:41;96952.97;;;24.28;31.73
49947;BME280;35839;48.662;13.300;2023-05-01T13:48:07;96951.84;;;24.24;30.65
49947;BME280;35839;48.662;13.300;2023-05-01T13:50:33;96943.72;;;25.34;33.26
49947;BME280;35839;48.662;13.300;2023-05-01T13:52:58;96942.00;;;24.96;30.85
49947;BME280;35839;48.662;13.300;2023-05-01T13:55:23;96945.03;;;25.05;33.52
49947;BME280;35839;48.662;13.300;2023-05-01T13:57:49;96931.19;;;24.86;35.04
49947;BME280;35839;48.662;13.300;2023-05-01T14:00:16;96931.84;;;24.98;33.28
49947;BME280;35839;48.662;13.300;2023-05-01T14:02:43;96932.81;;;24.43;33.83
49947;BME280;35839;48.662;13.300;2023-05-01T14:05:09;96930.72;;;24.94;35.97
49947;BME280;35839;48.662;13.300;2023-05-01T14:07:59;96933.69;;;24.70;35.22
49947;BME280;35839;48.662;13.300;2023-05-01T14:10:26;96940.59;;;23.32;32.86
49947;BME280;35839;48.662;13.300;2023-05-01T14:12:56;96934.19;;;24.23;33.80
49947;BME280;35839;48.662;13.300;2023-05-01T14:15:22;96935.91;;;23.90;33.50
49947;BME280;35839;48.662;13.300;2023-05-01T14:17:51;96930.44;;;24.24;35.96
49947;BME280;35839;48.662;13.300;2023-05-01T14:20:17;96936.88;;;23.84;36.10
49947;BME280;35839;48.662;13.300;2023-05-01T14:22:45;96918.06;;;24.40;34.52
49947;BME280;35839;48.662;13.300;2023-05-01T14:25:24;96917.94;;;24.74;35.51
49947;BME280;35839;48.662;13.300;2023-05-01T14:27:54;96923.66;;;23.94;35.16
49947;BME280;35839;48.662;13.300;2023-05-01T14:32:57;96928.53;;;24.42;37.55
49947;BME280;35839;48.662;13.300;2023-05-01T14:35:23;96927.53;;;24.26;35.84
49947;BME280;35839;48.662;13.300;2023-05-01T14:37:49;96929.13;;;23.83;36.80
49947;BME280;35839;48.662;13.300;2023-05-01T14:40:17;96926.84;;;23.74;37.12
49947;BME280;35839;48.662;13.300;2023-05-01T14:42:43;96922.53;;;24.12;36.40
49947;BME280;35839;48.662;13.300;2023-05-01T14:45:13;96922.25;;;24.09;37.14
49947;BME280;35839;48.662;13.300;2023-05-01T14:47:40;96916.66;;;24.32;37.36
49947;BME280;35839;48.662;13.300;2023-05-01T14:50:10;96922.63;;;24.39;36.75
49947;BME280;35839;48.662;13.300;2023-05-01T14:52:38;96935.09;;;23.90;36.91
49947;BME280;35839;48.662;13.300;2023-05-01T14:55:03;96932.53;;;23.78;37.75
49947;BME280;35839;48.662;13.300;2023-05-01T14:57:28;96929.19;;;24.10;37.10
49947;BME280;35839;48.662;13.300;2023-05-01T14:59:54;96929.50;;;23.24;39.95
49947;BME280;35839;48.662;13.300;2023-05-01T15:02:19;96922.50;;;24.29;39.73
49947;BME280;35839;48.662;13.300;2023-05-01T15:04:45;96928.16;;;24.11;37.81
49947;BME280;35839;48.662;13.300;2023-05-01T15:07:10;96919.84;;;25.06;35.92
49947;BME280;35839;48.662;13.300;2023-05-01T15:09:35;96923.38;;;24.13;39.34
49947;BME280;35839;48.662;13.300;2023-05-01T15:12:01;96920.19;;;24.38;36.87
49947;BME280;35839;48.662;13.300;2023-05-01T15:14:27;96925.94;;;24.25;37.90
49947;BME280;35839;48.662;13.300;2023-05-01T15:16:52;96929.66;;;24.02;39.28
49947;BME280;35839;48.662;13.300;2023-05-01T15:19:18;96927.47;;;23.31;40.30
49947;BME280;35839;48.662;13.300;2023-05-01T15:21:43;96935.72;;;22.84;42.38
49947;BME280;35839;48.662;13.300;2023-05-01T15:24:08;96942.66;;;21.45;45.77
49947;BME280;35839;48.662;13.300;2023-05-01T15:26:34;96941.19;;;21.61;48.11
49947;BME280;35839;48.662;13.300;2023-05-01T15:28:59;96937.81;;;21.65;46.58
49947;BME280;35839;48.662;13.300;2023-05-01T15:31:25;96942.09;;;21.78;45.89
49947;BME280;35839;48.662;13.300;2023-05-01T15:33:50;96932.03;;;21.03;47.05
49947;BME280;35839;48.662;13.300;2023-05-01T15:36:15;96933.28;;;21.00;47.73
49947;BME280;35839;48.662;13.300;2023-05-01T15:38:41;96943.41;;;20.80;48.35
49947;BME280;35839;48.662;13.300;2023-05-01T15:41:06;96946.78;;;20.87;47.07
49947;BME280;35839;48.662;13.300;2023-05-01T15:43:32;96940.78;;;20.43;48.98
49947;BME280;35839;48.662;13.300;2023-05-01T15:45:57;96941.38;;;20.63;48.05
49947;BME280;35839;48.662;13.300;2023-05-01T15:48:24;96941.19;;;20.77;47.92
49947;BME280;35839;48.662;13.300;2023-05-01T15:50:49;96934.13;;;21.13;47.50
49947;BME280;35839;48.662;13.300;2023-05-01T15:53:15;96947.88;;;20.31;48.70
49947;BME280;35839;48.662;13.300;2023-05-01T15:55:41;96953.47;;;20.41;49.35
49947;BME280;35839;48.662;13.300;2023-05-01T15:58:06;96954.66;;;20.08;50.13
49947;BME280;35839;48.662;13.300;2023-05-01T16:00:31;96953.22;;;20.31;48.44
49947;BME280;35839;48.662;13.300;2023-05-01T16:03:00;96951.41;;;20.06;49.93
49947;BME280;35839;48.662;13.300;2023-05-01T16:05:26;96954.19;;;19.93;51.74
49947;BME280;35839;48.662;13.300;2023-05-01T16:07:54;96946.06;;;19.69;52.29
49947;BME280;35839;48.662;13.300;2023-05-01T16:10:20;96955.09;;;19.87;51.00
49947;BME280;35839;48.662;13.300;2023-05-01T16:12:45;96956.16;;;20.23;49.23
49947;BME280;35839;48.662;13.300;2023-05-01T16:15:12;96961.97;;;20.13;49.96
49947;BME280;35839;48.662;13.300;2023-05-01T16:17:42;96965.91;;;20.29;49.96
49947;BME280;35839;48.662;13.300;2023-05-01T16:20:11;96971.88;;;20.06;50.79
49947;BME280;35839;48.662;13.300;2023-05-01T16:22:38;96966.19;;;19.84;50.72
49947;BME280;35839;48.662;13.300;2023-05-01T16:25:04;96967.81;;;19.53;51.74
49947;BME280;35839;48.662;13.300;2023-05-01T16:27:29;96973.66;;;19.36;52.63
49947;BME280;35839;48.662;13.300;2023-05-01T16:29:55;96977.63;;;19.27;51.83
49947;BME280;35839;48.662;13.300;2023-05-01T16:32:20;96967.06;;;19.46;53.02
49947;BME280;35839;48.662;13.300;2023-05-01T16:34:48;96971.63;;;19.38;53.46
49947;BME280;35839;48.662;13.300;2023-05-01T16:37:13;96966.31;;;19.64;52.80
49947;BME280;35839;48.662;13.300;2023-05-01T16:39:40;96975.31;;;19.37;54.40
49947;BME280;35839;48.662;13.300;2023-05-01T16:42:05;96974.31;;;19.07;56.10
49947;BME280;35839;48.662;13.300;2023-05-01T16:44:34;96989.06;;;18.96;56.25
49947;BME280;35839;48.662;13.300;2023-05-01T16:46:59;96985.03;;;18.80;57.04
49947;BME280;35839;48.662;13.300;2023-05-01T16:49:25;96987.03;;;18.91;57.42
49947;BME280;35839;48.662;13.300;2023-05-01T16:51:52;96983.75;;;18.96;58.00
49947;BME280;35839;48.662;13.300;2023-05-01T16:54:21;96994.47;;;18.69;59.42
49947;BME280;35839;48.662;13.300;2023-05-01T16:56:47;96990.84;;;18.50;59.80
49947;BME280;35839;48.662;13.300;2023-05-01T16:59:13;96997.03;;;18.31;61.81
49947;BME280;35839;48.662;13.300;2023-05-01T17:01:38;97000.59;;;17.98;63.42
49947;BME280;35839;48.662;13.300;2023-05-01T17:04:04;96996.22;;;18.37;61.38
49947;BME280;35839;48.662;13.300;2023-05-01T17:06:30;97004.41;;;18.16;63.49
49947;BME280;35839;48.662;13.300;2023-05-01T17:08:55;97016.69;;;17.90;65.13
49947;BME280;35839;48.662;13.300;2023-05-01T17:11:20;97012.91;;;18.44;62.25
49947;BME280;35839;48.662;13.300;2023-05-01T17:13:48;97017.50;;;17.97;63.73
49947;BME280;35839;48.662;13.300;2023-05-01T17:16:14;97017.50;;;17.90;64.57
49947;BME280;35839;48.662;13.300;2023-05-01T17:18:39;97021.34;;;17.95;65.46
49947;BME280;35839;48.662;13.300;2023-05-01T17:21:04;97019.94;;;18.05;65.15
49947;BME280;35839;48.662;13.300;2023-05-01T17:23:30;97020.69;;;18.32;64.28
49947;BME280;35839;48.662;13.300;2023-05-01T17:25:56;97021.56;;;17.80;66.12
49947;BME280;35839;48.662;13.300;2023-05-01T17:28:21;97032.56;;;17.63;67.50
49947;BME280;35839;48.662;13.300;2023-05-01T17:30:48;97037.47;;;17.93;66.85
49947;BME280;35839;48.662;13.300;2023-05-01T17:33:13;97034.41;;;17.89;67.94
49947;BME280;35839;48.662;13.300;2023-05-01T17:35:39;97040.63;;;17.22;72.00
49947;BME280;35839;48.662;13.300;2023-05-01T17:38:04;97042.22;;;17.03;73.52
49947;BME280;35839;48.662;13.300;2023-05-01T17:40:30;97049.84;;;17.46;72.11
49947;BME280;35839;48.662;13.300;2023-05-01T17:42:56;97048.31;;;16.90;74.81
49947;BME280;35839;48.662;13.300;2023-05-01T17:45:21;97048.78;;;17.20;74.28
49947;BME280;35839;48.662;13.300;2023-05-01T17:47:47;97051.81;;;16.62;76.87
49947;BME280;35839;48.662;13.300;2023-05-01T17:50:13;97050.59;;;17.13;74.75
49947;BME280;35839;48.662;13.300;2023-05-01T17:52:39;97057.59;;;16.79;77.26
49947;BME280;35839;48.662;13.300;2023-05-01T17:55:05;97055.38;;;16.41;79.80
49947;BME280;35839;48.662;13.300;2023-05-01T17:57:31;97058.97;;;16.75;78.23
49947;BME280;35839;48.662;13.300;2023-05-01T17:59:57;97056.03;;;16.57;79.25
49947;BME280;35839;48.662;13.300;2023-05-01T18:02:23;97065.19;;;16.54;79.84
49947;BME280;35839;48.662;13.300;2023-05-01T18:04:49;97069.63;;;16.47;80.87
49947;BME280;35839;48.662;13.300;2023-05-01T18:07:15;97071.66;;;16.52;79.91
49947;BME280;35839;48.662;13.300;2023-05-01T18:09:40;97076.22;;;16.64;79.69
49947;BME280;35839;48.662;13.300;2023-05-01T18:12:06;97079.63;;;16.93;77.34
49947;BME280;35839;48.662;13.300;2023-05-01T18:14:31;97079.66;;;17.00;76.41
49947;BME280;35839;48.662;13.300;2023-05-01T18:16:56;97079.88;;;16.00;81.69
49947;BME280;35839;48.662;13.300;2023-05-01T18:19:22;97080.66;;;16.22;82.11
49947;BME280;35839;48.662;13.300;2023-05-01T18:21:47;97078.25;;;15.99;83.25
49947;BME280;35839;48.662;13.300;2023-05-01T18:24:12;97087.44;;;16.38;80.29